Meknes, Morocco
Current Conditions -  °F | °C
As of 6:00 AM on Thursday 23 Oct 2014 (Local Time) from GMFM Reporting Station
Clear Clear  
Wind Chill: 64°   Ceiling: Unl
Heat Index: 64°   Visibility: 6mi
Dew Point: 30°   Wind: 9mph
Humidity: 28%   Direction: 110°ESE
Pressure: 30.09"   Gusts: NA
Location:  33.9°N, 5.56°W
Report Text: GMFM 230500Z 11008KT CAVOK 18/M01 Q1019 NOSIG
Loading
Personal Weather Stations






























Interactive Weather Map New forecast layout! Learn more

10-Day Weather Forecast

Advertisements
Track Severe Weather on mobile